createdAt,value
2023-05-10T00:02:03.808Z,4.87
2023-05-10T00:04:32.201Z,5.20
2023-05-10T00:07:02.828Z,6.10
2023-05-10T00:09:31.080Z,5.30
2023-05-10T00:12:00.048Z,5.47
2023-05-10T00:14:28.324Z,4.90
2023-05-10T00:16:56.747Z,5.53
2023-05-10T00:19:25.161Z,4.60
2023-05-10T00:21:53.441Z,6.20
2023-05-10T00:24:23.066Z,4.93
2023-05-10T00:26:51.352Z,5.37
2023-05-10T00:29:19.636Z,5.00
2023-05-10T00:31:48.126Z,5.30
2023-05-10T00:34:16.433Z,4.63
2023-05-10T00:36:44.667Z,4.60
2023-05-10T00:39:13.369Z,5.17
2023-05-10T00:41:43.086Z,4.63
2023-05-10T00:44:11.531Z,5.43
2023-05-10T00:46:39.802Z,4.70
2023-05-10T00:49:08.827Z,5.67
2023-05-10T00:51:37.574Z,4.60
2023-05-10T00:54:06.418Z,5.87
2023-05-10T00:56:34.758Z,5.40
2023-05-10T00:59:04.470Z,5.30
2023-05-10T01:01:33.524Z,5.67
2023-05-10T01:04:02.278Z,5.50
2023-05-10T01:06:30.547Z,5.80
2023-05-10T01:08:59.033Z,6.07
2023-05-10T01:11:27.388Z,6.23
2023-05-10T01:13:59.109Z,5.20
2023-05-10T01:16:29.991Z,5.63
2023-05-10T01:18:58.345Z,5.73
2023-05-10T01:21:35.340Z,6.57
2023-05-10T01:24:36.780Z,7.03
2023-05-10T01:27:33.167Z,6.53
2023-05-10T01:30:48.990Z,6.53
2023-05-10T01:33:21.587Z,5.70
2023-05-10T01:35:57.836Z,7.10
2023-05-10T01:38:35.339Z,6.80
2023-05-10T01:41:15.290Z,6.50
2023-05-10T01:43:50.990Z,7.93
2023-05-10T01:46:29.767Z,7.70
2023-05-10T01:49:02.742Z,7.13
2023-05-10T01:51:37.968Z,8.30
2023-05-10T01:54:08.223Z,7.30
2023-05-10T01:56:38.362Z,7.50
2023-05-10T01:59:11.206Z,7.20
2023-05-10T02:01:40.572Z,7.60
2023-05-10T02:04:12.027Z,7.40
2023-05-10T02:06:42.379Z,8.37
2023-05-10T02:09:13.120Z,7.87
2023-05-10T02:11:43.801Z,8.90
2023-05-10T02:14:14.716Z,8.50
2023-05-10T02:16:43.653Z,8.80
2023-05-10T02:19:16.327Z,8.30
2023-05-10T02:21:47.391Z,8.33
2023-05-10T02:24:18.298Z,8.77
2023-05-10T02:26:47.708Z,8.57
2023-05-10T02:29:17.327Z,8.00
2023-05-10T02:31:46.235Z,8.77
2023-05-10T02:34:16.578Z,7.73
2023-05-10T02:36:45.275Z,9.47
2023-05-10T02:39:15.628Z,7.93
2023-05-10T02:41:45.835Z,9.70
2023-05-10T02:44:17.748Z,8.60
2023-05-10T02:46:46.368Z,8.00
2023-05-10T02:49:16.599Z,8.60
2023-05-10T02:51:53.708Z,8.77
2023-05-10T02:54:26.767Z,8.47
2023-05-10T02:57:00.554Z,8.70
2023-05-10T02:59:29.138Z,9.30
2023-05-10T03:01:57.561Z,8.00
2023-05-10T03:04:27.361Z,8.67
2023-05-10T03:06:55.704Z,9.77
2023-05-10T03:09:24.109Z,8.90
2023-05-10T03:12:03.158Z,9.20
2023-05-10T03:14:43.704Z,8.13
2023-05-10T03:17:17.770Z,8.10
2023-05-10T03:19:55.372Z,8.40
2023-05-10T03:22:32.726Z,8.53
2023-05-10T03:25:07.663Z,7.50
2023-05-10T03:27:37.815Z,7.23
2023-05-10T03:30:08.104Z,7.50
2023-05-10T03:32:36.775Z,6.90
2023-05-10T03:35:10.690Z,6.93
2023-05-10T03:37:38.952Z,6.80
2023-05-10T03:40:09.561Z,7.67
2023-05-10T03:42:37.977Z,6.90
2023-05-10T03:45:06.956Z,5.93
2023-05-10T03:47:35.580Z,7.40
2023-05-10T03:50:04.168Z,6.20
2023-05-10T03:52:34.064Z,5.97
2023-05-10T03:55:04.098Z,5.67
2023-05-10T03:57:32.378Z,6.40
2023-05-10T04:00:00.939Z,5.80
2023-05-10T04:02:29.408Z,6.10
2023-05-10T04:04:57.711Z,5.10
2023-05-10T04:07:26.032Z,5.50
2023-05-10T04:09:55.982Z,5.40
2023-05-10T04:12:24.294Z,5.83
2023-05-10T04:14:53.011Z,5.70
2023-05-10T04:17:21.307Z,5.43
2023-05-10T04:19:49.614Z,5.20
2023-05-10T04:22:18.669Z,5.20
2023-05-10T04:24:47.028Z,4.37
2023-05-10T04:27:16.705Z,5.00
2023-05-10T04:29:45.077Z,4.67
2023-05-10T04:32:13.410Z,5.07
2023-05-10T04:34:41.676Z,4.27
2023-05-10T04:37:10.080Z,3.80
2023-05-10T04:39:40.240Z,4.00
2023-05-10T04:42:09.787Z,4.40
2023-05-10T04:44:39.454Z,3.70
2023-05-10T04:47:08.907Z,3.77
2023-05-10T04:49:38.235Z,3.63
2023-05-10T04:52:06.918Z,3.83
2023-05-10T04:54:35.844Z,3.50
2023-05-10T04:57:04.140Z,4.10
2023-05-10T04:59:32.444Z,3.27
2023-05-10T05:02:02.302Z,3.70
2023-05-10T05:04:32.082Z,3.63
2023-05-10T05:07:00.368Z,4.37
2023-05-10T05:09:28.607Z,3.17
2023-05-10T05:11:57.343Z,4.17
2023-05-10T05:14:26.277Z,4.23
2023-05-10T05:16:54.800Z,4.60
2023-05-10T05:19:24.527Z,3.80
2023-05-10T05:21:52.808Z,3.60
2023-05-10T05:24:21.097Z,3.80
2023-05-10T05:26:49.745Z,4.27
2023-05-10T05:29:17.975Z,3.77
2023-05-10T05:31:46.292Z,4.63
2023-05-10T05:34:14.697Z,3.87
2023-05-10T05:36:44.571Z,3.87
2023-05-10T05:39:12.835Z,3.83
2023-05-10T05:41:41.133Z,4.00
2023-05-10T05:44:09.461Z,3.60
2023-05-10T05:46:37.766Z,3.10
2023-05-10T05:49:06.245Z,4.17
2023-05-10T05:51:35.796Z,3.57
2023-05-10T05:54:05.859Z,3.87
2023-05-10T05:56:34.128Z,3.93
2023-05-10T05:59:02.532Z,3.80
2023-05-10T06:01:30.899Z,3.80
2023-05-10T06:03:59.223Z,3.77
2023-05-10T06:06:28.002Z,4.07
2023-05-10T06:08:57.188Z,4.57
2023-05-10T06:11:27.832Z,3.93
2023-05-10T06:13:56.093Z,3.93
2023-05-10T06:16:24.618Z,4.50
2023-05-10T06:18:52.881Z,4.47
2023-05-10T06:21:21.120Z,3.70
2023-05-10T06:23:49.432Z,4.20
2023-05-10T06:26:17.950Z,4.13
2023-05-10T06:28:47.629Z,3.70
2023-05-10T06:31:16.011Z,4.67
2023-05-10T06:33:44.440Z,4.37
2023-05-10T06:36:12.733Z,4.33
2023-05-10T06:38:41.151Z,4.27
2023-05-10T06:41:09.469Z,3.97
2023-05-10T06:43:40.983Z,4.93
2023-05-10T06:46:10.757Z,4.17
2023-05-10T06:48:39.046Z,4.70
2023-05-10T06:51:07.475Z,4.47
2023-05-10T06:53:35.797Z,4.30
2023-05-10T06:56:04.837Z,4.40
2023-05-10T06:58:33.800Z,4.00
2023-05-10T07:01:06.230Z,4.60
2023-05-10T07:03:36.477Z,4.10
2023-05-10T07:06:05.498Z,4.80
2023-05-10T07:08:33.983Z,4.30
2023-05-10T07:11:04.509Z,4.87
2023-05-10T07:13:33.425Z,4.17
2023-05-10T07:16:03.089Z,4.83
2023-05-10T07:18:31.689Z,4.10
2023-05-10T07:21:01.668Z,4.30
2023-05-10T07:23:30.649Z,4.57
2023-05-10T07:25:59.556Z,4.57
2023-05-10T07:28:28.016Z,4.33
2023-05-10T07:30:56.301Z,4.63
2023-05-10T07:33:24.666Z,4.37
2023-05-10T07:35:53.020Z,4.60
2023-05-10T07:38:22.833Z,5.30
2023-05-10T07:40:51.203Z,4.43
2023-05-10T08:48:10.530Z,4.63
2023-05-10T08:50:39.973Z,4.33
2023-05-10T08:53:12.245Z,4.50
2023-05-10T08:55:41.291Z,4.23
2023-05-10T08:58:10.192Z,4.03
2023-05-10T09:00:39.362Z,4.07
2023-05-10T09:03:09.194Z,3.87
2023-05-10T09:05:38.911Z,4.50
2023-05-10T09:08:08.899Z,4.33
2023-05-10T09:10:37.983Z,4.73
2023-05-10T09:13:07.035Z,4.47
2023-05-10T09:15:35.493Z,4.43
2023-05-10T09:18:05.004Z,4.27
2023-05-10T09:20:34.946Z,4.63
2023-05-10T09:23:03.438Z,4.90
2023-05-10T09:25:34.322Z,5.40
2023-05-10T09:28:02.883Z,4.57
2023-05-10T09:30:32.845Z,4.23
2023-05-10T09:33:02.290Z,4.40
2023-05-10T09:35:32.092Z,4.70
2023-05-10T09:38:04.936Z,4.80
2023-05-10T09:40:34.226Z,4.50
2023-05-10T09:43:04.020Z,4.50
2023-05-10T09:45:35.530Z,4.43
2023-05-10T09:48:06.254Z,4.47
2023-05-10T09:50:35.310Z,4.10
2023-05-10T09:53:05.889Z,4.40
2023-05-10T09:55:42.318Z,4.93
2023-05-10T09:58:12.025Z,4.50
2023-05-10T10:00:42.217Z,4.17
2023-05-10T10:03:15.805Z,4.10
2023-05-10T10:05:45.659Z,4.20
2023-05-10T10:08:16.254Z,4.87
2023-05-10T10:10:47.068Z,4.23
2023-05-10T10:13:16.153Z,3.87
2023-05-10T10:15:45.354Z,4.10
2023-05-10T10:18:16.697Z,4.23
2023-05-10T10:20:45.326Z,4.10
2023-05-10T10:23:17.369Z,4.87
2023-05-10T10:25:49.446Z,3.70
2023-05-10T10:28:28.342Z,4.10
2023-05-10T10:30:58.786Z,4.63
2023-05-10T10:33:42.705Z,4.20
2023-05-10T10:36:11.670Z,4.33
2023-05-10T10:39:00.677Z,4.30
2023-05-10T10:41:36.904Z,3.80
2023-05-10T10:44:37.936Z,4.17
2023-05-10T10:47:26.036Z,3.60
2023-05-10T10:50:04.560Z,4.20
2023-05-10T10:52:37.499Z,4.33
2023-05-10T10:55:09.452Z,4.30
2023-05-10T10:57:46.987Z,4.20
2023-05-10T11:00:32.938Z,3.90
2023-05-10T11:03:05.506Z,4.10
2023-05-10T11:05:43.363Z,3.70
2023-05-10T11:08:28.027Z,3.47
2023-05-10T11:11:08.065Z,3.77
2023-05-10T11:13:40.495Z,4.40
2023-05-10T11:16:17.452Z,4.13
2023-05-10T11:19:05.911Z,4.20
2023-05-10T11:21:35.289Z,4.10
2023-05-10T11:24:07.232Z,4.00
2023-05-10T11:26:38.609Z,4.23
2023-05-10T11:29:07.098Z,4.63
2023-05-10T11:31:35.714Z,4.10
2023-05-10T11:34:04.323Z,4.37
2023-05-10T11:36:36.034Z,4.23
2023-05-10T11:39:05.444Z,4.40
2023-05-10T11:41:34.231Z,4.13
2023-05-10T11:44:04.732Z,4.57
2023-05-10T11:46:33.215Z,4.17
2023-05-10T11:49:05.637Z,4.80
2023-05-10T11:51:36.813Z,4.20
2023-05-10T11:54:08.934Z,4.27
2023-05-10T11:56:37.336Z,4.30
2023-05-10T11:59:07.296Z,5.00
2023-05-10T12:01:36.245Z,5.30
2023-05-10T12:04:05.279Z,4.60
2023-05-10T12:06:42.230Z,7.23
2023-05-10T12:09:11.228Z,6.00
2023-05-10T12:11:43.566Z,8.33
2023-05-10T12:14:13.654Z,7.37
2023-05-10T12:16:42.563Z,4.97
2023-05-10T12:19:11.320Z,4.43
2023-05-10T12:21:40.153Z,6.50
2023-05-10T12:24:09.766Z,4.30
2023-05-10T12:26:38.162Z,4.40
2023-05-10T12:29:19.390Z,3.67
2023-05-10T12:31:55.050Z,3.60
2023-05-10T12:34:32.583Z,4.00
2023-05-10T12:37:01.324Z,4.27
2023-05-10T12:39:44.265Z,4.27
2023-05-10T12:42:13.217Z,3.80
2023-05-10T12:44:42.935Z,3.67
2023-05-10T12:47:11.984Z,4.20
2023-05-10T12:49:40.472Z,3.50
2023-05-10T12:52:08.976Z,4.10
2023-05-10T12:54:37.370Z,3.40
2023-05-10T12:57:05.926Z,3.77
2023-05-10T12:59:35.933Z,4.03
2023-05-10T13:02:08.151Z,3.90
2023-05-10T13:04:38.661Z,3.40
2023-05-10T13:07:07.010Z,3.87
2023-05-10T13:09:35.449Z,3.43
2023-05-10T13:12:04.147Z,3.80
2023-05-10T13:14:33.517Z,4.33
2023-05-10T13:17:01.933Z,3.70
2023-05-10T13:19:31.694Z,3.83
2023-05-10T13:22:00.274Z,3.40
2023-05-10T13:24:28.603Z,3.80
2023-05-10T13:26:57.113Z,3.50
2023-05-10T13:29:25.405Z,4.03
2023-05-10T13:31:53.777Z,3.33
2023-05-10T13:34:22.514Z,3.23
2023-05-10T13:36:52.567Z,3.70
2023-05-10T13:39:21.167Z,3.30
2023-05-10T13:41:49.494Z,3.20
2023-05-10T13:44:18.318Z,3.63
2023-05-10T13:46:46.711Z,4.27
2023-05-10T13:49:15.065Z,3.47
2023-05-10T13:51:43.398Z,3.53
2023-05-10T13:54:13.778Z,3.47
2023-05-10T13:56:43.581Z,3.83
2023-05-10T13:59:12.117Z,3.40
2023-05-10T14:01:40.461Z,3.30
2023-05-10T14:04:11.527Z,3.30
2023-05-10T14:06:40.173Z,3.50
2023-05-10T14:09:08.661Z,3.57
2023-05-10T14:11:38.664Z,3.33
2023-05-10T14:14:07.129Z,3.60
2023-05-10T14:16:35.633Z,3.07
2023-05-10T14:19:04.076Z,3.33
2023-05-10T14:21:32.508Z,3.50
2023-05-10T14:24:00.991Z,3.90
2023-05-10T14:26:29.703Z,3.67
2023-05-10T14:28:59.934Z,3.60
2023-05-10T14:31:28.627Z,3.73
2023-05-10T14:33:57.008Z,3.00
2023-05-10T14:36:25.638Z,3.13
2023-05-10T14:38:54.167Z,3.90
2023-05-10T14:41:22.513Z,4.20
2023-05-10T14:43:50.821Z,3.47
2023-05-10T14:46:20.953Z,3.93
2023-05-10T14:48:49.564Z,3.97
2023-05-10T14:51:17.894Z,3.60
2023-05-10T14:53:46.323Z,4.27
2023-05-10T14:56:14.941Z,4.23
2023-05-10T14:58:43.307Z,3.70
2023-05-10T15:01:11.830Z,4.30
2023-05-10T15:03:42.189Z,4.10
2023-05-10T15:06:11.727Z,4.03
2023-05-10T15:08:40.173Z,4.20
2023-05-10T15:11:08.549Z,3.80
2023-05-10T15:13:36.940Z,3.57
2023-05-10T15:16:05.612Z,5.00
2023-05-10T15:18:34.159Z,5.20
2023-05-10T15:21:04.387Z,5.30
2023-05-10T15:23:33.132Z,5.60
2023-05-10T15:26:03.911Z,5.13
2023-05-10T15:28:33.626Z,3.60
2023-05-10T15:31:02.654Z,3.80
2023-05-10T15:33:31.234Z,4.67
2023-05-10T15:35:59.616Z,4.73
2023-05-10T15:38:29.406Z,5.20
2023-05-10T15:40:59.644Z,4.30
2023-05-10T15:43:28.106Z,4.10
2023-05-10T15:45:56.616Z,4.53
2023-05-10T15:48:25.083Z,5.53
2023-05-10T15:50:53.729Z,4.80
2023-05-10T15:53:22.111Z,5.17
2023-05-10T15:55:52.088Z,4.93
2023-05-10T15:58:20.630Z,5.03
2023-05-10T16:00:49.111Z,6.63
2023-05-10T16:03:17.627Z,9.30
2023-05-10T16:05:46.144Z,3.90
2023-05-10T16:08:14.541Z,4.60
2023-05-10T16:10:42.938Z,4.80
2023-05-10T16:13:15.109Z,4.70
2023-05-10T16:15:43.593Z,4.17
2023-05-10T16:18:12.651Z,5.13
2023-05-10T16:20:41.165Z,5.10
2023-05-10T16:23:09.585Z,5.10
2023-05-10T16:25:38.165Z,5.43
2023-05-10T16:28:06.658Z,4.63
2023-05-10T16:30:36.465Z,5.23
2023-05-10T16:33:05.357Z,4.13
2023-05-10T16:35:33.857Z,4.70
2023-05-10T16:38:02.203Z,5.87
2023-05-10T16:40:30.927Z,5.63
2023-05-10T16:42:59.371Z,4.10
2023-05-10T16:45:27.720Z,5.70
2023-05-10T16:47:57.525Z,5.53
2023-05-10T16:50:27.221Z,5.87
2023-05-10T16:52:55.617Z,5.10
2023-05-10T16:55:26.242Z,4.93
2023-05-10T16:57:59.935Z,4.90
2023-05-10T17:00:28.355Z,5.57
2023-05-10T17:02:58.262Z,6.37
2023-05-10T17:05:27.610Z,5.50
2023-05-10T17:07:56.242Z,6.23
2023-05-10T17:10:24.981Z,6.67
2023-05-10T17:12:53.745Z,4.90
2023-05-10T17:15:22.281Z,5.00
2023-05-10T17:17:50.675Z,5.60
2023-05-10T17:20:20.767Z,4.80
2023-05-10T17:22:49.686Z,5.50
2023-05-10T17:25:18.432Z,5.50
2023-05-10T17:27:47.091Z,6.33
2023-05-10T17:30:16.364Z,7.87
2023-05-10T17:32:44.928Z,5.57
2023-05-10T17:35:13.282Z,7.57
2023-05-10T17:37:44.193Z,5.50
2023-05-10T17:40:13.365Z,5.90
2023-05-10T17:42:41.991Z,7.40
2023-05-10T17:45:11.731Z,10.30
2023-05-10T17:47:40.145Z,7.67
2023-05-10T17:50:10.237Z,8.10
2023-05-10T17:52:38.730Z,5.00
2023-05-10T17:55:09.910Z,7.23
2023-05-10T17:57:38.923Z,8.87
2023-05-10T18:00:08.877Z,6.10
2023-05-10T18:02:37.892Z,4.80
2023-05-10T18:05:07.073Z,5.03
2023-05-10T18:07:36.170Z,5.50
2023-05-10T18:10:04.776Z,5.73
2023-05-10T18:12:34.551Z,5.60
2023-05-10T18:15:02.954Z,5.40
2023-05-10T18:17:31.459Z,5.30
2023-05-10T18:19:59.780Z,5.77
2023-05-10T18:22:28.260Z,6.03
2023-05-10T18:24:56.712Z,5.20
2023-05-10T18:27:25.246Z,4.40
2023-05-10T18:29:55.031Z,6.43
2023-05-10T18:32:24.380Z,4.30
2023-05-10T18:34:54.969Z,4.27
2023-05-10T18:37:24.249Z,4.00
2023-05-10T18:39:52.779Z,4.10
2023-05-10T18:42:21.723Z,3.80
2023-05-10T18:44:50.118Z,3.80
2023-05-10T18:47:19.944Z,3.63
2023-05-10T18:49:48.302Z,4.27
2023-05-10T18:52:17.272Z,4.10
2023-05-10T18:54:45.864Z,4.67
2023-05-10T18:57:14.396Z,4.67
2023-05-10T18:59:42.986Z,4.07
2023-05-10T19:02:11.440Z,3.70
2023-05-10T19:04:41.420Z,5.40
2023-05-10T19:07:09.844Z,5.00
2023-05-10T19:09:38.334Z,6.23
2023-05-10T19:12:06.835Z,6.03
2023-05-10T19:14:35.207Z,6.90
2023-05-10T19:17:03.752Z,5.90
2023-05-10T19:19:32.395Z,5.60
2023-05-10T19:22:02.173Z,4.63
2023-05-10T19:24:30.694Z,4.47
2023-05-10T19:26:59.056Z,5.00
2023-05-10T19:29:27.755Z,4.50
2023-05-10T19:31:56.301Z,4.97
2023-05-10T19:34:24.636Z,5.07
2023-05-10T19:36:53.055Z,4.83
2023-05-10T19:39:22.937Z,5.17
2023-05-10T19:41:51.244Z,5.07
2023-05-10T19:44:19.795Z,4.43
2023-05-10T19:46:48.362Z,4.20
2023-05-10T19:49:16.778Z,4.23
2023-05-10T19:51:45.446Z,4.50
2023-05-10T19:54:13.844Z,4.17
2023-05-10T19:56:43.674Z,4.03
2023-05-10T19:59:12.184Z,4.07
2023-05-10T20:01:40.604Z,4.60
2023-05-10T20:04:10.231Z,3.90
2023-05-10T20:06:38.765Z,4.03
2023-05-10T20:09:07.261Z,4.20
2023-05-10T20:11:35.964Z,3.87
2023-05-10T20:14:05.842Z,4.13
2023-05-10T20:16:34.226Z,5.23
2023-05-10T20:19:02.859Z,4.60
2023-05-10T20:21:31.233Z,4.80
2023-05-10T20:23:59.761Z,3.90
2023-05-10T20:26:28.110Z,4.10
2023-05-10T20:28:56.555Z,4.30
2023-05-10T20:31:26.414Z,4.47
2023-05-10T20:33:54.819Z,4.33
2023-05-10T20:36:23.261Z,3.70
2023-05-10T20:38:51.622Z,4.10
2023-05-10T20:41:20.164Z,3.83
2023-05-10T20:43:48.547Z,3.70
2023-05-10T20:46:17.224Z,4.20
2023-05-10T20:48:47.007Z,4.63
2023-05-10T20:51:15.435Z,4.60
2023-05-10T20:53:43.850Z,4.10
2023-05-10T20:56:12.236Z,4.53
2023-05-10T20:58:40.624Z,4.47
2023-05-10T21:01:09.149Z,4.17
2023-05-10T21:03:37.531Z,4.90
2023-05-10T21:06:07.488Z,4.43
2023-05-10T21:08:35.953Z,4.30
2023-05-10T21:11:05.847Z,4.00
2023-05-10T21:13:34.663Z,4.20
2023-05-10T21:16:03.021Z,4.60
2023-05-10T21:18:31.420Z,3.80
2023-05-10T21:21:00.201Z,4.03
2023-05-10T21:23:29.988Z,4.37
2023-05-10T21:25:58.304Z,4.23
2023-05-10T21:28:26.986Z,4.57
2023-05-10T21:30:55.380Z,4.00
2023-05-10T21:33:23.981Z,4.13
2023-05-10T21:35:52.484Z,4.27
2023-05-10T21:38:21.092Z,3.60
2023-05-10T21:40:50.906Z,3.73
2023-05-10T21:43:19.231Z,3.83
2023-05-10T21:45:47.752Z,4.03
2023-05-10T21:48:16.097Z,3.40
2023-05-10T21:50:47.979Z,4.03
2023-05-10T21:53:16.482Z,4.60
2023-05-10T21:55:44.965Z,4.30
2023-05-10T21:58:14.778Z,4.07
2023-05-10T22:00:43.413Z,3.93
2023-05-10T22:03:11.967Z,4.00
2023-05-10T22:05:40.841Z,3.80
2023-05-10T22:08:09.241Z,4.20
2023-05-10T22:10:37.615Z,3.67
2023-05-10T22:13:06.136Z,4.30
2023-05-10T22:15:36.676Z,3.80
2023-05-10T22:18:05.387Z,4.50
2023-05-10T22:20:34.448Z,3.73
2023-05-10T22:23:03.145Z,3.53
2023-05-10T22:25:31.884Z,4.10
2023-05-10T22:28:00.397Z,4.57
2023-05-10T22:30:30.423Z,4.60
2023-05-10T22:33:01.755Z,4.70
2023-05-10T22:35:30.463Z,4.37
2023-05-10T22:37:58.869Z,4.53
2023-05-10T22:40:27.442Z,4.57
2023-05-10T22:42:55.961Z,4.07
2023-05-10T22:45:24.275Z,3.83
2023-05-10T22:47:53.001Z,3.70
2023-05-10T22:50:22.956Z,3.60
2023-05-10T22:52:51.275Z,4.30
2023-05-10T22:55:19.664Z,4.00
2023-05-10T22:57:47.976Z,4.00
2023-05-10T23:00:17.618Z,3.97
2023-05-10T23:02:46.492Z,4.37
2023-05-10T23:05:15.002Z,3.67
2023-05-10T23:07:44.815Z,3.40
2023-05-10T23:10:13.465Z,3.70
2023-05-10T23:12:41.905Z,3.40
2023-05-10T23:15:11.213Z,4.10
2023-05-10T23:17:39.626Z,3.80
2023-05-10T23:20:09.423Z,3.80
2023-05-10T23:22:37.742Z,3.70
2023-05-10T23:25:08.729Z,3.67
2023-05-10T23:27:37.033Z,3.57
2023-05-10T23:30:07.704Z,4.07
2023-05-10T23:32:36.132Z,3.17
2023-05-10T23:35:04.680Z,3.87
2023-05-10T23:37:32.996Z,4.23
2023-05-10T23:40:02.078Z,4.37
2023-05-10T23:42:33.594Z,3.80
2023-05-10T23:45:01.948Z,4.00
2023-05-10T23:47:33.325Z,3.63
2023-05-10T23:50:01.840Z,4.30
2023-05-10T23:52:30.335Z,4.47
2023-05-10T23:54:58.675Z,4.23
2023-05-10T23:57:27.238Z,4.50
2023-05-10T23:59:57.099Z,4.50
